Time;durP1;ratioP1;P1;durP2;ratioP2;P2;SDS_P1;SDS_P2;PMS_P1;PMS_P2;Temp;Humidity;BMP_temperature;BMP_pressure;BME280_temperature;BME280_humidity;BME280_pressure;Samples;Min_cycle;Max_cycle;Signal;HPM_P1;HPM_P2
2023/06/22 00:01:07;;;;;;;;;4.00;2.67;;;;;22.65;73.39;101476.44;5078098;27;75127;-84
2023/06/22 00:04:26;;;;;;;;;3.00;3.00;;;;;22.25;73.56;101417.03;5013724;28;47084;-83
2023/06/22 00:10:24;;;;;;;;;2.00;2.00;;;;;22.29;73.30;101437.34;5058902;28;45547;-84
2023/06/22 00:13:45;;;;;;;;;3.33;3.33;;;;;22.54;73.42;101499.94;5086356;27;46357;-84
2023/06/22 00:16:25;;;;;;;;;5.00;4.33;;;;;22.31;74.03;101464.19;5050912;28;45728;-84
2023/06/22 00:22:42;;;;;;;;;3.33;3.33;;;;;22.21;73.85;101447.94;5065732;28;45615;-84
2023/06/22 00:25:56;;;;;;;;;3.00;3.00;;;;;22.46;73.58;101475.47;5029566;28;46075;-85
2023/06/22 00:29:10;;;;;;;;;;;;;;;;;;;;;
2023/06/22 00:32:32;;;;;;;;;;;;;;;;;;;;;
2023/06/22 00:35:29;;;;;;;;;3.33;3.33;;;;;22.50;75.27;101456.22;5027888;28;72013;-84
2023/06/22 00:42:00;;;;;;;;;;;;;;;;;;;;;
2023/06/22 00:45:23;;;;;;;;;3.33;3.33;;;;;22.65;75.84;101491.75;4924840;28;69701;-84
2023/06/22 00:48:22;;;;;;;;;;;;;;;;;;;;;
2023/06/22 00:51:00;;;;;;;;;3.67;3.67;;;;;22.09;77.36;101416.66;5011294;28;75595;-83
2023/06/22 00:53:51;;;;;;;;;3.00;3.00;;;;;21.98;74.50;101395.19;4994043;28;45584;-84
2023/06/22 00:56:59;;;;;;;;;4.00;4.00;;;;;22.23;75.26;101437.03;5032569;27;45629;-83
2023/06/22 01:06:18;;;;;;;;;;;;;;;;;;;;;
2023/06/22 01:09:45;;;;;;;;;;;;;;;;;;;;;
2023/06/22 01:12:49;;;;;;;;;6.00;6.00;;;;;21.82;74.69;101403.66;4989649;28;71714;-83
2023/06/22 01:15:49;;;;;;;;;3.00;2.00;;;;;21.96;75.08;101431.28;4977853;28;46555;-84
2023/06/22 01:18:45;;;;;;;;;3.33;3.33;;;;;21.75;76.15;101380.94;5037122;28;45596;-83
2023/06/22 01:22:03;;;;;;;;;3.00;3.00;;;;;22.37;76.18;101484.34;5053536;27;45575;-84
2023/06/22 01:25:07;;;;;;;;;;;;;;;;;;;;;
2023/06/22 01:28:10;;;;;;;;;;;;;;;;;;;;;
2023/06/22 01:31:19;;;;;;;;;5.00;5.00;;;;;22.04;76.45;101437.75;5075048;28;73983;-83
2023/06/22 01:34:13;;;;;;;;;4.00;4.00;;;;;22.23;75.53;101470.22;5074598;28;45750;-85
2023/06/22 01:43:27;;;;;;;;;4.00;4.00;;;;;21.79;76.01;101400.38;5074269;28;45501;-83
2023/06/22 01:46:35;;;;;;;;;5.00;5.00;;;;;21.93;75.69;101418.06;5064611;28;46827;-84
2023/06/22 01:49:22;;;;;;;;;;;;;;;;;;;;;
2023/06/22 01:52:14;;;;;;;;;6.00;4.33;;;;;21.47;74.95;101333.09;5063300;28;74178;-83
2023/06/22 01:55:07;;;;;;;;;3.67;3.67;;;;;22.09;75.58;101445.41;5069063;28;46521;-83
2023/06/22 01:57:49;;;;;;;;;3.67;3.67;;;;;21.52;74.67;101335.41;5084275;27;45543;-83
2023/06/22 02:00:59;;;;;;;;;5.00;3.00;;;;;21.94;74.70;101411.72;5058439;28;45617;-84
2023/06/22 02:04:05;;;;;;;;;7.00;3.00;;;;;21.51;76.14;101347.13;5057007;28;45535;-83
2023/06/22 02:07:10;;;;;;;;;3.00;2.33;;;;;21.71;77.26;101379.47;4996508;28;45586;-84
2023/06/22 02:11:14;;;;;;;;;5.00;3.67;;;;;22.04;75.06;101439.59;5057719;28;45477;-84
2023/06/22 02:20:57;;;;;;;;;;;;;;;;;;;;;
2023/06/22 02:23:55;;;;;;;;;8.00;4.00;;;;;21.39;77.98;101332.03;5053468;28;69399;-83
2023/06/22 02:26:34;;;;;;;;;6.33;4.33;;;;;21.37;75.36;101323.25;5067750;27;45293;-83
2023/06/22 02:29:26;;;;;;;;;6.00;5.00;;;;;21.31;75.29;101332.66;5057535;28;45487;-82
2023/06/22 02:32:13;;;;;;;;;;;;;;;;;;;;;
2023/06/22 02:35:35;;;;;;;;;5.00;4.00;;;;;21.52;76.15;101354.25;5073070;28;67440;-82
2023/06/22 02:38:52;;;;;;;;;5.00;5.00;;;;;21.48;75.37;101358.16;5058842;28;45304;-84
2023/06/22 02:42:20;;;;;;;;;;;;;;;;;;;;;
2023/06/22 02:45:14;;;;;;;;;5.00;3.67;;;;;21.78;74.97;101398.66;5065007;27;45542;-84
2023/06/22 02:51:19;;;;;;;;;4.33;4.00;;;;;21.36;74.99;101337.66;5074481;27;46407;-82
2023/06/22 02:54:07;;;;;;;;;;;;;;;;;;;;;
2023/06/22 02:57:02;;;;;;;;;5.33;4.67;;;;;21.24;75.24;101310.78;5074339;27;72869;-83
2023/06/22 03:02:50;;;;;;;;;8.00;6.00;;;;;21.76;75.00;101433.78;5055416;28;45494;-83
2023/06/22 03:05:27;;;;;;;;;5.33;4.67;;;;;21.38;75.13;101362.59;5043151;28;45666;-84
2023/06/22 03:08:28;;;;;;;;;10.33;6.33;;;;;21.86;75.04;101430.34;5076083;28;45498;-83
2023/06/22 03:11:33;;;;;;;;;;;;;;;;;;;;;
2023/06/22 03:14:16;;;;;;;;;5.00;4.67;;;;;21.58;74.54;101369.88;5046686;28;71552;-83
2023/06/22 03:17:11;;;;;;;;;5.33;5.33;;;;;21.50;75.64;101353.53;5031557;28;46877;-83
2023/06/22 03:20:33;;;;;;;;;;;;;;;;;;;;;
2023/06/22 03:23:28;;;;;;;;;6.00;6.00;;;;;21.18;75.99;101295.16;5021896;28;68838;-85
2023/06/22 03:26:26;;;;;;;;;5.00;3.33;;;;;21.10;77.23;101268.06;5062961;28;45412;-85
2023/06/22 03:29:34;;;;;;;;;4.33;4.33;;;;;21.43;76.57;101337.03;5060784;28;45531;-85
2023/06/22 03:32:22;;;;;;;;;5.67;4.00;;;;;21.68;75.43;101371.66;5055607;28;45513;-84
2023/06/22 03:35:34;;;;;;;;;5.00;5.00;;;;;21.27;75.80;101305.16;5046305;28;45569;-85
2023/06/22 03:41:51;;;;;;;;;3.33;3.33;;;;;21.23;78.67;101301.03;5000082;28;46001;-85
2023/06/22 03:44:50;;;;;;;;;6.00;6.00;;;;;21.21;76.97;101305.69;5071602;27;45622;-85
2023/06/22 03:48:02;;;;;;;;;5.00;5.00;;;;;21.71;77.09;101382.19;4978649;28;45324;-84
2023/06/22 03:53:53;;;;;;;;;5.33;4.00;;;;;21.09;77.43;101298.63;5064723;27;46802;-85
2023/06/22 03:56:49;;;;;;;;;6.00;6.00;;;;;21.10;77.67;101288.72;5069943;27;45317;-85
2023/06/22 03:59:29;;;;;;;;;6.33;6.33;;;;;20.96;77.70;101270.16;5060441;27;45571;-84
2023/06/22 04:02:18;;;;;;;;;;;;;;;;;;;;;
2023/06/22 04:05:03;;;;;;;;;5.33;5.33;;;;;21.34;78.58;101335.09;5057980;28;74222;-85
2023/06/22 04:08:04;;;;;;;;;6.00;6.00;;;;;21.17;77.50;101304.22;5056156;28;45530;-84
2023/06/22 04:14:43;;;;;;;;;;;;;;;;;;;;;
2023/06/22 04:21:16;;;;;;;;;9.67;7.00;;;;;21.61;79.59;101383.06;4974230;28;45529;-84
2023/06/22 04:23:53;;;;;;;;;8.33;8.33;;;;;21.62;79.08;101395.56;4977499;28;45406;-85
2023/06/22 04:26:45;;;;;;;;;9.33;9.00;;;;;21.27;79.11;101334.75;4974306;28;45449;-84
2023/06/22 04:29:38;;;;;;;;;12.67;7.33;;;;;20.97;79.30;101283.50;4983798;28;45574;-84
2023/06/22 04:32:38;;;;;;;;;;;;;;;;;;;;;
2023/06/22 04:35:41;;;;;;;;;5.33;5.00;;;;;21.14;79.94;101301.78;5017928;28;67073;-85
2023/06/22 04:38:54;;;;;;;;;;;;;;;;;;;;;
2023/06/22 04:41:46;;;;;;;;;9.00;6.67;;;;;21.00;80.89;101285.06;5028288;28;75161;-85
2023/06/22 04:48:25;;;;;;;;;;;;;;;;;;;;;
2023/06/22 04:51:21;;;;;;;;;8.33;8.33;;;;;21.43;84.93;101350.50;5023117;28;71064;-86
2023/06/22 04:54:10;;;;;;;;;;;;;;;;;;;;;
2023/06/22 04:57:10;;;;;;;;;10.67;10.67;;;;;21.12;85.68;101305.59;5038181;28;72826;-86
2023/06/22 04:59:57;;;;;;;;;11.00;9.33;;;;;20.83;88.13;101280.22;5022360;28;45383;-85
2023/06/22 05:03:29;;;;;;;;;9.67;6.00;;;;;21.05;87.37;101305.22;5025859;28;45676;-85
2023/06/22 05:06:14;;;;;;;;;7.33;6.67;;;;;20.76;86.21;101261.06;5069226;28;45729;-85
2023/06/22 05:08:49;;;;;;;;;11.33;8.67;;;;;20.91;88.30;101289.34;5057763;28;45301;-85
2023/06/22 05:11:56;;;;;;;;;;;;;;;;;;;;;
2023/06/22 05:21:33;;;;;;;;;10.33;10.33;;;;;20.92;88.94;101309.03;5017060;28;45752;-88
2023/06/22 05:24:23;;;;;;;;;11.33;11.33;;;;;20.71;95.44;101295.53;5014949;28;45453;-87
2023/06/22 05:37:43;;;;;;;;;;;;;;;;;;;;;
2023/06/22 05:40:44;;;;;;;;;13.00;12.00;;;;;20.47;100.00;101274.19;5072578;28;72737;-84
2023/06/22 05:47:34;;;;;;;;;;;;;;;;;;;;;
2023/06/22 05:50:22;;;;;;;;;18.33;16.00;;;;;20.27;100.00;101253.44;5046018;28;70250;-85
2023/06/22 05:52:50;;;;;;;;;23.67;19.67;;;;;20.46;100.00;101301.16;5057265;28;45593;-85
2023/06/22 05:55:22;;;;;;;;;15.67;15.67;;;;;20.56;100.00;101337.06;5056702;28;46307;-85
2023/06/22 05:58:14;;;;;;;;;15.67;15.00;;;;;20.41;100.00;101306.06;5050956;28;45597;-84
2023/06/22 06:00:44;;;;;;;;;20.00;19.00;;;;;20.36;100.00;101297.50;5078610;27;45562;-82
2023/06/22 06:03:20;;;;;;;;;;;;;;;;;;;;;
2023/06/22 06:06:01;;;;;;;;;16.67;15.67;;;;;20.13;100.00;101267.94;5078818;28;73742;-82
2023/06/22 06:08:41;;;;;;;;;19.67;18.00;;;;;20.16;100.00;101294.53;5078064;28;45528;-82
2023/06/22 06:11:16;;;;;;;;;23.33;19.00;;;;;20.46;100.00;101330.72;5076792;27;45313;-81
2023/06/22 06:13:52;;;;;;;;;19.67;17.67;;;;;19.96;100.00;101255.00;5089406;27;45396;-80
2023/06/22 06:16:20;;;;;;;;;18.00;18.00;;;;;20.61;100.00;101383.28;5072640;28;45689;-80
2023/06/22 06:19:09;;;;;;;;;20.33;20.33;;;;;20.47;100.00;101362.00;5086091;27;45570;-82
2023/06/22 06:21:34;;;;;;;;;18.33;17.33;;;;;20.50;100.00;101356.38;5049178;28;45523;-82
2023/06/22 06:24:20;;;;;;;;;20.00;17.33;;;;;19.95;100.00;101273.91;5079954;27;45552;-81
2023/06/22 06:26:56;;;;;;;;;21.00;21.00;;;;;20.01;100.00;101289.53;5047930;27;45631;-81
2023/06/22 06:29:27;;;;;;;;;22.00;16.67;;;;;20.00;100.00;101301.25;5090245;27;45529;-81
2023/06/22 06:32:05;;;;;;;;;20.00;18.33;;;;;20.01;100.00;101301.16;5061483;28;46891;-81
2023/06/22 06:34:38;;;;;;;;;19.00;18.00;;;;;19.78;100.00;101296.72;5057401;28;45843;-82
2023/06/22 06:37:22;;;;;;;;;28.67;24.33;;;;;19.92;100.00;101325.19;5079159;28;46587;-81
2023/06/22 06:39:48;;;;;;;;;24.33;21.00;;;;;20.05;100.00;101353.66;5056672;28;45468;-80
2023/06/22 06:42:31;;;;;;;;;20.67;20.33;;;;;19.80;100.00;101316.22;5069585;27;45635;-81
2023/06/22 06:45:00;;;;;;;;;27.33;21.00;;;;;19.74;100.00;101289.88;5061900;28;45585;-80
2023/06/22 06:47:32;;;;;;;;;27.67;23.00;;;;;20.30;100.00;101400.09;5061661;28;47142;-81
2023/06/22 06:50:05;;;;;;;;;22.67;21.67;;;;;19.67;100.00;101283.25;5050558;27;45569;-81
2023/06/22 06:52:32;;;;;;;;;18.67;18.00;;;;;19.74;100.00;101314.88;5055819;28;45427;-81
2023/06/22 06:55:13;;;;;;;;;27.00;22.33;;;;;20.24;100.00;101401.41;5056520;28;45596;-81
2023/06/22 06:57:54;;;;;;;;;24.00;22.00;;;;;19.63;100.00;101290.69;5067962;28;48034;-82
2023/06/22 07:00:21;;;;;;;;;26.67;25.67;;;;;19.62;100.00;101294.38;5077607;27;45316;-80
2023/06/22 07:02:49;;;;;;;;;24.67;20.00;;;;;19.45;100.00;101261.75;5079109;28;45513;-81
2023/06/22 07:05:40;;;;;;;;;27.33;26.00;;;;;20.20;100.00;101379.28;5054933;28;45807;-82
2023/06/22 07:08:43;;;;;;;;;;;;;;;;;;;;;
2023/06/22 07:11:23;;;;;;;;;23.00;21.33;;;;;19.96;100.00;101343.59;5077382;28;73302;-83
2023/06/22 07:14:12;;;;;;;;;23.67;23.00;;;;;19.86;100.00;101345.28;5060979;28;45515;-83
2023/06/22 07:17:04;;;;;;;;;30.33;28.67;;;;;19.70;100.00;101316.09;5086826;27;45666;-83
2023/06/22 07:20:20;;;;;;;;;27.67;21.67;;;;;19.51;100.00;101296.16;5065802;27;45587;-82
2023/06/22 07:23:09;;;;;;;;;29.33;25.33;;;;;19.51;100.00;101298.81;5045281;28;45463;-82
2023/06/22 07:26:01;;;;;;;;;18.67;18.67;;;;;19.52;100.00;101301.41;5067208;28;45393;-82
2023/06/22 07:29:20;;;;;;;;;25.33;23.67;;;;;20.03;100.00;101390.47;5073666;27;45458;-83
2023/06/22 07:31:54;;;;;;;;;28.00;26.00;;;;;19.31;100.00;101265.44;5049095;27;46011;-83
2023/06/22 07:34:36;;;;;;;;;27.33;25.67;;;;;19.94;100.00;101399.25;5068766;28;45314;-83
2023/06/22 07:37:31;;;;;;;;;35.33;29.33;;;;;19.64;100.00;101334.47;5060653;28;45554;-82
2023/06/22 07:40:06;;;;;;;;;26.00;24.33;;;;;19.83;100.00;101375.03;5078120;28;45466;-81
2023/06/22 07:42:41;;;;;;;;;32.00;25.67;;;;;19.33;100.00;101278.75;5077805;28;46362;-82
2023/06/22 07:45:42;;;;;;;;;;;;;;;;;;;;;
2023/06/22 07:48:23;;;;;;;;;34.00;30.00;;;;;19.57;100.00;101322.50;5077063;27;68572;-82
2023/06/22 07:50:53;;;;;;;;;32.00;26.67;;;;;19.84;100.00;101379.44;5054061;27;45385;-82
2023/06/22 07:53:44;;;;;;;;;30.00;25.33;;;;;19.25;100.00;101287.38;5059509;28;47201;-82
2023/06/22 07:56:24;;;;;;;;;34.33;29.67;;;;;19.40;100.00;101307.72;5063685;28;45473;-81
2023/06/22 07:59:41;;;;;;;;;29.33;27.67;;;;;19.34;100.00;101280.47;5057448;28;45465;-82
2023/06/22 08:02:13;;;;;;;;;;;;;;;;;;;;;
2023/06/22 08:05:07;;;;;;;;;25.00;25.00;;;;;19.30;100.00;101274.47;5072575;28;74458;-84
2023/06/22 08:08:07;;;;;;;;;29.33;26.00;;;;;19.41;100.00;101287.94;5042654;28;45332;-83
2023/06/22 08:10:50;;;;;;;;;35.00;31.67;;;;;19.44;100.00;101302.94;5076144;28;45454;-84
2023/06/22 08:14:01;;;;;;;;;31.00;28.33;;;;;19.92;100.00;101389.63;5058936;28;45404;-84
2023/06/22 08:16:53;;;;;;;;;37.67;32.00;;;;;19.73;100.00;101352.59;5048297;28;47179;-82
2023/06/22 08:19:54;;;;;;;;;35.67;32.67;;;;;19.84;100.00;101365.16;5046269;28;45340;-82
2023/06/22 08:22:45;;;;;;;;;36.00;30.00;;;;;19.74;100.00;101367.69;5049347;28;45504;-83
2023/06/22 08:29:23;;;;;;;;;34.00;29.67;;;;;19.94;100.00;101391.19;4973457;28;45565;-85
2023/06/22 08:36:18;;;;;;;;;32.00;26.33;;;;;19.39;100.00;101308.66;4975717;28;45490;-84
2023/06/22 08:38:50;;;;;;;;;29.00;27.33;;;;;19.59;100.00;101339.38;5075908;28;45545;-83
2023/06/22 08:41:28;;;;;;;;;;;;;;;;;;;;;
2023/06/22 08:44:40;;;;;;;;;29.33;27.67;;;;;19.30;100.00;101311.16;5068045;28;72784;-86
2023/06/22 08:51:03;;;;;;;;;29.67;29.67;;;;;19.19;100.00;101307.47;4934127;28;45820;-85
2023/06/22 08:58:03;;;;;;;;;;;;;;;;;;;;;
2023/06/22 09:00:32;;;;;;;;;28.00;27.00;;;;;19.53;100.00;101409.59;4930390;28;45504;-84
2023/06/22 09:03:01;;;;;;;;;28.33;26.67;;;;;18.82;100.00;101278.13;4994719;28;45621;-84
2023/06/22 09:05:48;;;;;;;;;25.00;25.00;;;;;18.98;100.00;101310.88;5068341;27;45382;-84
2023/06/22 09:08:30;;;;;;;;;26.33;25.33;;;;;18.84;100.00;101289.63;5055492;28;45346;-82
2023/06/22 09:11:26;;;;;;;;;25.33;24.00;;;;;19.06;100.00;101336.16;5051949;28;45348;-82
2023/06/22 09:14:18;;;;;;;;;23.67;21.00;;;;;18.76;100.00;101295.53;5048103;28;45317;-82
2023/06/22 09:17:15;;;;;;;;;25.33;24.00;;;;;19.37;100.00;101392.91;5038981;28;45703;-82
2023/06/22 09:19:55;;;;;;;;;23.67;21.33;;;;;19.40;100.00;101406.97;5038510;28;45348;-82
2023/06/22 09:22:43;;;;;;;;;;;;;;;;;;;;;
2023/06/22 09:25:35;;;;;;;;;23.00;21.00;;;;;19.40;100.00;101392.66;5056214;28;71467;-82
2023/06/22 09:28:01;;;;;;;;;22.00;22.00;;;;;19.08;100.00;101346.75;5057072;28;46117;-83
2023/06/22 09:31:32;;;;;;;;;25.33;22.00;;;;;18.80;100.00;101298.84;5039293;28;45545;-82
2023/06/22 09:34:14;;;;;;;;;26.67;22.33;;;;;18.88;100.00;101310.69;5027453;28;45375;-83
2023/06/22 09:40:53;;;;;;;;;22.33;20.67;;;;;19.20;100.00;101352.09;5042596;28;46823;-80
2023/06/22 09:43:22;;;;;;;;;19.33;18.00;;;;;19.11;100.00;101335.81;5039448;28;45325;-80
2023/06/22 09:45:55;;;;;;;;;21.67;20.67;;;;;19.62;100.00;101408.91;5053971;28;45479;-79
2023/06/22 09:48:20;;;;;;;;;23.67;23.00;;;;;19.64;100.00;101407.81;5046100;28;45419;-79
2023/06/22 09:50:55;;;;;;;;;24.33;22.67;;;;;19.66;100.00;101426.50;5060492;28;45895;-80
2023/06/22 09:53:30;;;;;;;;;24.67;21.00;;;;;19.34;100.00;101356.41;5059386;28;45385;-79
2023/06/22 09:56:06;;;;;;;;;24.33;22.00;;;;;19.49;100.00;101389.31;5059898;28;45369;-80
2023/06/22 09:58:39;;;;;;;;;18.33;17.67;;;;;19.27;100.00;101356.00;5060649;28;45311;-80
2023/06/22 10:01:05;;;;;;;;;23.33;21.00;;;;;19.76;100.00;101431.03;5075689;28;45475;-79
2023/06/22 10:03:30;;;;;;;;;25.33;20.00;;;;;19.86;100.00;101455.34;5060094;28;45410;-79
2023/06/22 10:06:04;;;;;;;;;22.33;16.67;;;;;19.68;100.00;101403.06;5062309;28;45482;-80
2023/06/22 10:08:52;;;;;;;;;22.33;22.33;;;;;19.58;100.00;101356.44;5061799;28;45403;-80
2023/06/22 10:11:30;;;;;;;;;23.67;19.33;;;;;19.48;100.00;101317.84;5071773;28;45577;-80
2023/06/22 10:14:10;;;;;;;;;24.67;22.00;;;;;19.63;100.00;101346.22;5070548;28;45501;-80
2023/06/22 10:16:36;;;;;;;;;19.67;19.33;;;;;20.30;100.00;101448.44;5061600;28;45417;-82
2023/06/22 10:19:02;;;;;;;;;24.00;21.00;;;;;20.09;100.00;101408.81;5078385;28;45463;-80
2023/06/22 10:21:28;;;;;;;;;20.67;19.67;;;;;20.14;100.00;101406.63;5060684;28;45428;-80
2023/06/22 10:23:54;;;;;;;;;16.33;16.33;;;;;19.91;100.00;101339.56;5050700;28;45394;-79
2023/06/22 10:26:19;;;;;;;;;18.67;16.00;;;;;20.02;100.00;101334.22;5079458;27;45618;-79
2023/06/22 10:28:45;;;;;;;;;19.67;19.67;;;;;20.48;100.00;101393.28;5060912;28;45480;-80
2023/06/22 10:31:40;;;;;;;;;23.67;21.00;;;;;20.63;100.00;101398.28;5061613;28;47931;-80
2023/06/22 10:34:08;;;;;;;;;18.00;17.67;;;;;20.86;100.00;101426.03;5072875;28;45478;-80
2023/06/22 10:36:33;;;;;;;;;21.00;17.00;;;;;20.79;100.00;101416.72;5078710;28;45445;-81
2023/06/22 10:39:13;;;;;;;;;;;;;;;;;;;;;
2023/06/22 10:41:38;;;;;;;;;14.33;14.33;;;;;20.77;100.00;101386.44;5078478;28;75287;-81
2023/06/22 10:44:12;;;;;;;;;15.67;13.67;;;;;21.09;100.00;101410.72;5061480;28;45475;-80
2023/06/22 10:46:46;;;;;;;;;19.67;17.00;;;;;21.56;100.00;101447.22;5079609;28;45377;-80
2023/06/22 10:49:11;;;;;;;;;16.67;14.33;;;;;21.35;100.00;101419.38;5063259;28;45666;-81
2023/06/22 10:52:06;;;;;;;;;;;;;;;;;;;;;
2023/06/22 10:55:04;;;;;;;;;;;;;;;;;;;;;
2023/06/22 10:57:32;;;;;;;;;16.00;16.00;;;;;21.89;100.00;101422.88;5077888;27;66358;-82
2023/06/22 10:59:58;;;;;;;;;15.33;15.33;;;;;21.79;100.00;101417.38;5069886;27;45406;-81
2023/06/22 11:02:24;;;;;;;;;18.67;17.33;;;;;21.76;100.00;101439.19;5077512;28;47251;-82
2023/06/22 11:05:00;;;;;;;;;15.67;15.67;;;;;21.41;100.00;101395.50;5079581;28;45481;-82
2023/06/22 11:07:50;;;;;;;;;;;;;;;;;;;;;
2023/06/22 11:10:35;;;;;;;;;15.00;15.00;;;;;21.55;100.00;101411.38;5054933;28;73388;-82
2023/06/22 11:13:29;;;;;;;;;17.33;17.33;;;;;21.71;100.00;101419.88;5059470;28;45466;-82
2023/06/22 11:16:54;;;;;;;;;;;;;;;;;;;;;
2023/06/22 11:20:16;;;;;;;;;14.00;14.00;;;;;22.13;97.96;101426.19;5048214;28;68710;-83
2023/06/22 11:23:27;;;;;;;;;15.67;14.00;;;;;22.29;99.98;101450.81;5024242;28;45632;-83
2023/06/22 11:26:44;;;;;;;;;;;;;;;;;;;;;
2023/06/22 11:33:52;;;;;;;;;;;;;;;;;;;;;
2023/06/22 11:47:18;;;;;;;;;16.67;16.67;;;;;23.20;91.22;101504.00;4936889;28;45407;-84
2023/06/22 12:04:52;;;;;;;;;;;;;;;;;;;;;
2023/06/22 12:32:57;;;;;;;;;;;;;;;;;;;;;
2023/06/22 12:43:15;;;;;;;;;;;;;;;;;;;;;
2023/06/22 13:00:13;;;;;;;;;19.00;17.33;;;;;23.87;84.68;101547.41;5106568;27;45705;-75
2023/06/22 13:02:38;;;;;;;;;19.67;17.67;;;;;24.06;82.59;101552.84;5082574;27;45315;-75
2023/06/22 13:05:07;;;;;;;;;19.33;18.33;;;;;24.19;83.66;101558.88;5088609;27;45238;-75
2023/06/22 13:07:33;;;;;;;;;22.00;21.00;;;;;24.12;82.45;101549.59;5091253;27;45296;-75
2023/06/22 13:09:58;;;;;;;;;20.67;18.33;;;;;24.20;80.71;101549.78;5096104;27;45256;-75
2023/06/22 13:12:23;;;;;;;;;22.67;19.33;;;;;24.38;82.66;101549.06;5090110;27;45399;-75
2023/06/22 13:14:49;;;;;;;;;25.33;21.00;;;;;24.35;83.69;101545.63;5084461;27;45152;-75
2023/06/22 13:17:15;;;;;;;;;25.00;24.00;;;;;24.45;78.91;101552.88;5090343;27;45448;-75
2023/06/22 13:19:40;;;;;;;;;19.33;19.33;;;;;24.50;81.26;101556.03;5088699;27;46155;-75
2023/06/22 13:22:27;;;;;;;;;18.67;15.67;;;;;24.40;77.27;101544.34;5090248;27;45179;-75
2023/06/22 13:24:52;;;;;;;;;23.67;20.67;;;;;24.38;77.29;101549.06;5091478;27;45280;-75
2023/06/22 13:27:18;;;;;;;;;18.67;18.33;;;;;24.29;78.98;101546.19;5127166;27;45310;-75
2023/06/22 13:29:43;;;;;;;;;18.67;18.67;;;;;24.23;82.83;101554.88;5087086;27;45342;-75
2023/06/22 13:32:08;;;;;;;;;18.67;17.67;;;;;24.25;81.41;101561.00;5118086;27;45350;-75
2023/06/22 13:34:34;;;;;;;;;22.00;19.67;;;;;24.14;77.11;101541.38;5083935;27;45271;-75
2023/06/22 13:36:59;;;;;;;;;21.67;19.67;;;;;24.12;78.38;101537.94;5086197;27;45372;-75
2023/06/22 13:39:24;;;;;;;;;23.00;19.33;;;;;24.10;77.77;101539.91;5093274;27;45583;-75
2023/06/22 13:41:50;;;;;;;;;20.33;20.33;;;;;24.06;80.44;101536.63;5078700;27;45370;-75
2023/06/22 13:44:15;;;;;;;;;16.67;16.67;;;;;24.02;79.24;101524.38;5081285;27;45412;-75
2023/06/22 13:46:40;;;;;;;;;19.33;18.00;;;;;24.10;79.30;101542.63;5078474;27;45397;-75
2023/06/22 13:49:06;;;;;;;;;17.00;17.00;;;;;24.09;80.37;101547.16;5080803;27;45365;-75
2023/06/22 13:51:31;;;;;;;;;16.67;16.00;;;;;24.12;79.34;101548.75;5084116;27;45391;-75
2023/06/22 13:53:56;;;;;;;;;16.67;16.33;;;;;24.14;80.69;101555.75;5128901;27;45285;-75
2023/06/22 13:56:22;;;;;;;;;14.33;14.33;;;;;24.17;82.47;101560.88;5097725;27;45383;-75
2023/06/22 13:58:47;;;;;;;;;15.00;15.00;;;;;24.18;80.31;101554.44;5096005;27;46089;-75
2023/06/22 14:01:12;;;;;;;;;13.67;13.67;;;;;24.22;78.21;101558.59;5082765;27;45322;-75
2023/06/22 14:03:38;;;;;;;;;15.33;12.67;;;;;24.19;77.25;101566.97;5095936;27;45296;-75
2023/06/22 14:06:04;;;;;;;;;14.67;14.67;;;;;24.21;76.61;101573.09;5123461;27;45769;-75
2023/06/22 14:08:29;;;;;;;;;12.33;12.33;;;;;24.22;76.42;101565.81;5088949;27;47488;-75
2023/06/22 14:10:54;;;;;;;;;13.00;13.00;;;;;24.30;78.02;101576.81;5118407;27;45273;-75
2023/06/22 14:13:20;;;;;;;;;12.00;9.67;;;;;24.33;75.17;101582.78;5082105;27;45400;-75
2023/06/22 14:15:48;;;;;;;;;15.67;12.67;;;;;24.33;72.63;101581.94;5080628;27;45316;-75
2023/06/22 14:18:14;;;;;;;;;13.67;11.33;;;;;24.26;75.30;101578.06;5074372;27;46105;-75
2023/06/22 14:20:39;;;;;;;;;13.00;11.33;;;;;24.24;73.39;101578.25;5098100;27;45259;-75
2023/06/22 14:23:05;;;;;;;;;8.33;8.33;;;;;24.25;77.36;101576.34;5078480;27;45475;-75
2023/06/22 14:25:30;;;;;;;;;13.67;12.00;;;;;24.29;75.38;101567.84;5075406;27;45419;-75
2023/06/22 14:27:56;;;;;;;;;8.33;8.33;;;;;24.33;71.50;101582.78;5082101;27;45348;-75
2023/06/22 14:30:21;;;;;;;;;11.67;8.67;;;;;24.32;72.33;101578.38;5082429;27;45430;-75
2023/06/22 14:32:47;;;;;;;;;9.33;7.00;;;;;24.24;70.94;101547.63;5069245;27;45828;-75
2023/06/22 14:35:12;;;;;;;;;6.33;6.33;;;;;24.41;70.33;101579.34;5070293;27;45300;-75
2023/06/22 14:37:37;;;;;;;;;6.67;6.67;;;;;24.48;70.00;101577.78;5070568;27;46191;-75
2023/06/22 14:40:03;;;;;;;;;9.00;7.00;;;;;24.59;72.85;101583.06;5097417;27;45428;-75
2023/06/22 14:42:30;;;;;;;;;6.33;5.67;;;;;24.69;72.86;101588.47;5075418;28;45329;-75
2023/06/22 14:44:55;;;;;;;;;6.00;4.67;;;;;24.72;66.01;101583.63;5069250;28;45235;-75
2023/06/22 14:47:21;;;;;;;;;8.33;7.00;;;;;24.71;67.08;101583.75;5080061;27;46086;-76
2023/06/22 14:49:46;;;;;;;;;6.00;6.00;;;;;24.64;68.07;101569.13;5081394;27;45404;-75
2023/06/22 14:52:11;;;;;;;;;8.67;7.00;;;;;24.75;67.92;101587.88;5073963;27;45228;-75
2023/06/22 14:54:37;;;;;;;;;4.00;4.00;;;;;24.81;67.28;101582.75;5074419;27;45661;-76
2023/06/22 14:57:02;;;;;;;;;9.00;7.33;;;;;24.86;66.25;101585.91;5076753;27;46130;-75
2023/06/22 14:59:27;;;;;;;;;6.00;6.00;;;;;25.02;72.26;101596.13;5108773;27;45212;-75
2023/06/22 15:01:53;;;;;;;;;8.67;6.67;;;;;25.13;72.42;101578.88;5063213;28;45355;-75
2023/06/22 15:04:18;;;;;;;;;6.00;6.00;;;;;25.29;75.53;101593.47;5077801;27;45409;-75
2023/06/22 15:06:45;;;;;;;;;6.67;6.67;;;;;25.47;71.57;101593.53;5079680;27;45228;-75
2023/06/22 15:09:10;;;;;;;;;6.33;6.33;;;;;25.50;68.55;101590.56;5077023;28;45412;-75
2023/06/22 15:11:35;;;;;;;;;8.00;7.00;;;;;25.63;71.55;101596.50;5080266;27;45684;-76
2023/06/22 15:14:01;;;;;;;;;6.33;6.33;;;;;25.60;70.79;101580.53;5079799;27;45349;-75
2023/06/22 15:16:26;;;;;;;;;5.33;5.33;;;;;25.72;71.42;101589.34;5095707;27;48469;-75
2023/06/22 15:18:51;;;;;;;;;6.00;5.00;;;;;25.78;65.96;101597.72;5075583;27;45424;-75
2023/06/22 15:21:17;;;;;;;;;7.00;7.00;;;;;25.72;66.67;101583.91;5061917;28;45326;-75
2023/06/22 15:23:42;;;;;;;;;10.33;7.00;;;;;25.92;65.48;101580.06;5062761;28;45296;-75
2023/06/22 15:26:07;;;;;;;;;7.00;7.00;;;;;26.15;65.54;101575.03;5061203;28;47299;-75
2023/06/22 15:28:34;;;;;;;;;4.00;4.00;;;;;26.35;69.13;101574.78;5063093;28;45272;-75
2023/06/22 15:31:00;;;;;;;;;5.00;4.33;;;;;26.74;64.51;101588.00;5062374;28;45367;-75
2023/06/22 15:33:25;;;;;;;;;4.00;4.00;;;;;26.90;60.84;101570.00;5070698;27;45522;-76
2023/06/22 15:35:52;;;;;;;;;4.00;4.00;;;;;26.98;60.61;101587.34;5074255;28;46238;-75
2023/06/22 15:38:18;;;;;;;;;4.33;4.00;;;;;26.89;55.83;101579.19;5074886;27;45336;-75
2023/06/22 15:40:43;;;;;;;;;6.67;6.00;;;;;26.92;57.40;101580.72;5073719;28;45356;-76
2023/06/22 15:43:15;;;;;;;;;4.00;4.00;;;;;27.29;55.67;101597.56;5114283;27;45560;-75
2023/06/22 15:45:40;;;;;;;;;5.00;3.33;;;;;27.61;52.96;101599.66;5075871;27;45368;-76
2023/06/22 15:48:06;;;;;;;;;4.00;3.33;;;;;27.93;53.35;101594.31;5060991;27;45862;-75
2023/06/22 15:50:31;;;;;;;;;4.00;3.00;;;;;27.87;52.42;101605.88;5062154;28;45456;-76
2023/06/22 15:52:57;;;;;;;;;3.00;3.00;;;;;27.92;50.02;101592.63;5074528;28;45484;-76
2023/06/22 15:55:22;;;;;;;;;3.33;3.00;;;;;27.79;50.92;101600.38;5073348;27;45533;-76
2023/06/22 15:57:48;;;;;;;;;6.00;4.00;;;;;27.83;53.50;101603.63;5068285;27;45172;-76
2023/06/22 16:00:17;;;;;;;;;4.33;4.00;;;;;27.90;50.57;101594.66;5078697;27;45601;-76
2023/06/22 16:02:44;;;;;;;;;4.33;3.00;;;;;27.61;51.08;101590.63;5079702;27;45385;-76
2023/06/22 16:05:10;;;;;;;;;2.33;2.33;;;;;27.50;50.19;101599.06;5113592;27;47392;-76
2023/06/22 16:07:37;;;;;;;;;4.00;4.00;;;;;27.92;50.13;101594.47;5068126;28;45435;-76
2023/06/22 16:10:03;;;;;;;;;4.00;4.00;;;;;28.32;50.92;101582.88;5080316;28;45249;-76
2023/06/22 16:12:29;;;;;;;;;3.67;3.00;;;;;28.37;49.14;101608.53;5079947;27;45352;-77
2023/06/22 16:14:54;;;;;;;;;5.00;5.00;;;;;28.06;51.21;101612.06;5080312;27;45324;-76